createdAt,value
2019-03-25T00:01:05.257Z,16.13
2019-03-25T00:03:34.786Z,14.03
2019-03-25T00:06:04.029Z,17.47
2019-03-25T00:08:33.214Z,11.90
2019-03-25T00:11:02.630Z,16.57
2019-03-25T00:13:31.864Z,12.63
2019-03-25T00:16:01.216Z,14.37
2019-03-25T00:18:30.401Z,10.97
2019-03-25T00:20:59.781Z,13.10
2019-03-25T00:23:29.051Z,13.17
2019-03-25T00:25:58.186Z,15.47
2019-03-25T00:28:27.591Z,16.23
2019-03-25T00:30:56.809Z,14.20
2019-03-25T00:33:26.220Z,13.47
2019-03-25T00:35:55.642Z,13.23
2019-03-25T00:38:24.795Z,13.53
2019-03-25T00:40:54.216Z,13.97
2019-03-25T00:43:23.641Z,12.13
2019-03-25T00:45:52.801Z,12.50
2019-03-25T00:48:22.168Z,13.43
2019-03-25T00:50:51.792Z,14.23
2019-03-25T00:53:20.992Z,12.10
2019-03-25T00:55:50.737Z,11.67
2019-03-25T00:58:20.175Z,13.77
2019-03-25T01:00:49.371Z,14.70
2019-03-25T01:03:19.136Z,14.77
2019-03-25T01:05:48.294Z,14.07
2019-03-25T01:08:17.478Z,14.43
2019-03-25T01:10:46.884Z,14.53
2019-03-25T01:13:16.280Z,13.17
2019-03-25T01:15:45.425Z,13.37
2019-03-25T01:18:17.204Z,19.27
2019-03-25T01:20:45.770Z,14.07
2019-03-25T01:23:15.158Z,12.57
2019-03-25T01:25:44.368Z,10.73
2019-03-25T01:28:13.526Z,16.27
2019-03-25T01:30:42.927Z,14.27
2019-03-25T01:33:12.089Z,15.30
2019-03-25T01:35:41.480Z,15.67
2019-03-25T01:38:10.878Z,14.67
2019-03-25T01:40:40.076Z,15.37
2019-03-25T01:43:09.453Z,15.03
2019-03-25T01:45:38.873Z,18.37
2019-03-25T01:48:08.078Z,16.03
2019-03-25T01:50:37.208Z,18.77
2019-03-25T01:53:06.355Z,22.13
2019-03-25T01:55:35.779Z,21.20
2019-03-25T01:58:05.240Z,18.57
2019-03-25T02:00:34.470Z,22.27
2019-03-25T02:03:03.857Z,19.10
2019-03-25T02:05:33.248Z,17.70
2019-03-25T02:08:02.406Z,18.10
2019-03-25T02:10:31.862Z,21.07
2019-03-25T02:13:01.057Z,21.17
2019-03-25T02:15:30.383Z,21.23
2019-03-25T02:17:59.724Z,20.13
2019-03-25T02:20:28.884Z,21.57
2019-03-25T02:22:58.230Z,21.40
2019-03-25T02:25:27.739Z,22.03
2019-03-25T02:27:56.909Z,23.97
2019-03-25T02:30:32.147Z,23.57
2019-03-25T02:33:01.299Z,20.97
2019-03-25T02:35:30.684Z,25.50
2019-03-25T02:38:00.146Z,19.83
2019-03-25T02:40:29.388Z,21.80
2019-03-25T02:42:58.794Z,18.67
2019-03-25T02:45:27.942Z,18.30
2019-03-25T02:47:57.219Z,16.67
2019-03-25T02:50:26.607Z,20.57
2019-03-25T02:52:57.200Z,18.17
2019-03-25T02:55:40.768Z,21.50
2019-03-25T02:57:57.447Z,22.30
2019-03-25T03:00:38.519Z,22.37
2019-03-25T03:03:09.041Z,18.87
2019-03-25T03:05:38.523Z,15.03
2019-03-25T03:08:07.724Z,15.83
2019-03-25T03:10:37.114Z,18.47
2019-03-25T03:13:06.353Z,16.57
2019-03-25T03:15:35.859Z,15.37
2019-03-25T03:18:05.324Z,14.83
2019-03-25T03:20:34.720Z,15.07
2019-03-25T03:23:04.183Z,18.80
2019-03-25T03:25:33.337Z,12.43
2019-03-25T03:28:02.752Z,14.77
2019-03-25T03:30:32.156Z,16.67
2019-03-25T03:33:01.320Z,16.47
2019-03-25T03:35:30.447Z,14.17
2019-03-25T03:37:59.847Z,18.47
2019-03-25T03:40:29.032Z,10.87
2019-03-25T03:42:58.483Z,16.17
2019-03-25T03:45:27.666Z,14.97
2019-03-25T03:47:56.799Z,20.17
2019-03-25T03:50:27.272Z,15.63
2019-03-25T03:52:57.159Z,14.67
2019-03-25T03:55:26.686Z,21.30
2019-03-25T03:57:57.116Z,18.03
2019-03-25T04:00:34.269Z,15.90
2019-03-25T04:03:03.882Z,13.47
2019-03-25T04:05:33.117Z,13.67
2019-03-25T04:08:02.766Z,16.77
2019-03-25T04:10:32.190Z,21.10
2019-03-25T04:13:01.366Z,10.53
2019-03-25T04:15:32.191Z,11.23
2019-03-25T04:18:01.432Z,17.73
2019-03-25T04:20:30.954Z,15.03
2019-03-25T04:23:00.308Z,13.07
2019-03-25T04:25:29.612Z,11.97
2019-03-25T04:27:59.460Z,11.57
2019-03-25T04:30:28.953Z,13.73
2019-03-25T04:32:58.558Z,11.73
2019-03-25T04:35:27.759Z,12.67
2019-03-25T04:37:57.151Z,14.27
2019-03-25T04:40:26.390Z,12.53
2019-03-25T04:42:55.864Z,14.80
2019-03-25T04:45:27.310Z,14.03
2019-03-25T04:47:56.539Z,10.83
2019-03-25T04:50:25.886Z,12.90
2019-03-25T04:52:55.088Z,13.20
2019-03-25T04:55:24.222Z,14.10
2019-03-25T04:57:53.629Z,10.47
2019-03-25T05:00:38.588Z,10.53
2019-03-25T05:03:08.049Z,9.67
2019-03-25T05:05:37.469Z,14.20
2019-03-25T05:08:06.629Z,9.37
2019-03-25T05:10:36.085Z,10.20
2019-03-25T05:13:05.487Z,10.60
2019-03-25T05:15:34.702Z,6.53
2019-03-25T05:18:03.992Z,9.20
2019-03-25T05:20:33.392Z,12.70
2019-03-25T05:23:03.190Z,14.33
2019-03-25T05:25:32.404Z,10.37
2019-03-25T05:28:01.901Z,12.17
2019-03-25T05:30:31.213Z,8.30
2019-03-25T05:33:00.703Z,11.73
2019-03-25T05:35:30.514Z,12.07
2019-03-25T05:37:59.838Z,10.00
2019-03-25T05:40:29.326Z,14.77
2019-03-25T05:42:58.836Z,9.07
2019-03-25T05:45:28.456Z,10.30
2019-03-25T05:47:57.656Z,10.57
2019-03-25T05:50:27.152Z,10.40
2019-03-25T05:52:56.462Z,9.97
2019-03-25T05:55:25.666Z,8.03
2019-03-25T05:57:54.874Z,7.87
2019-03-25T06:00:25.799Z,8.93
2019-03-25T06:02:55.296Z,10.07
2019-03-25T06:05:24.801Z,8.97
2019-03-25T06:07:54.222Z,10.20
2019-03-25T06:10:23.726Z,8.67
2019-03-25T06:12:53.222Z,7.77
2019-03-25T06:15:22.833Z,7.47
2019-03-25T06:17:52.041Z,11.87
2019-03-25T06:20:21.545Z,6.83
2019-03-25T06:22:50.938Z,10.70
2019-03-25T06:25:20.151Z,7.63
2019-03-25T06:27:49.607Z,7.33
2019-03-25T06:30:19.981Z,11.47
2019-03-25T06:32:49.480Z,11.23
2019-03-25T06:35:24.851Z,11.17
2019-03-25T06:37:54.328Z,9.53
2019-03-25T06:40:23.833Z,10.97
2019-03-25T06:42:53.042Z,8.27
2019-03-25T06:45:22.340Z,11.27
2019-03-25T06:47:51.745Z,13.50
2019-03-25T06:50:20.947Z,9.67
2019-03-25T06:52:50.142Z,12.27
2019-03-25T06:55:19.323Z,11.70
2019-03-25T06:57:48.643Z,10.70
2019-03-25T07:00:18.744Z,7.00
2019-03-25T07:02:48.296Z,9.93
2019-03-25T07:05:17.973Z,10.47
2019-03-25T07:07:47.289Z,10.70
2019-03-25T07:10:35.382Z,11.53
2019-03-25T07:13:05.640Z,11.40
2019-03-25T07:15:35.037Z,14.60
2019-03-25T07:18:04.964Z,12.73
2019-03-25T07:20:34.375Z,14.00
2019-03-25T07:23:03.682Z,13.07
2019-03-25T07:25:33.156Z,10.70
2019-03-25T07:28:02.682Z,11.40
2019-03-25T07:30:32.091Z,13.90
2019-03-25T07:33:01.589Z,12.43
2019-03-25T07:35:31.089Z,15.27
2019-03-25T07:38:00.598Z,13.23
2019-03-25T07:40:29.914Z,11.70
2019-03-25T07:42:59.326Z,14.53
2019-03-25T07:45:29.115Z,11.13
2019-03-25T07:47:58.432Z,13.23
2019-03-25T07:50:29.157Z,11.87
2019-03-25T07:52:58.468Z,11.93
2019-03-25T07:55:28.089Z,13.50
2019-03-25T07:57:57.593Z,11.53
2019-03-25T08:00:26.894Z,15.87
2019-03-25T08:02:56.385Z,14.10
2019-03-25T08:05:25.820Z,12.27
2019-03-25T08:07:55.335Z,10.57
2019-03-25T08:10:36.431Z,12.37
2019-03-25T08:13:07.647Z,12.33
2019-03-25T08:15:37.139Z,8.70
2019-03-25T08:18:07.152Z,10.20
2019-03-25T08:20:36.643Z,10.10
2019-03-25T08:23:06.365Z,8.20
2019-03-25T08:25:35.860Z,8.03
2019-03-25T08:28:05.547Z,6.03
2019-03-25T08:30:34.992Z,6.30
2019-03-25T08:33:04.698Z,7.00
2019-03-25T08:35:34.302Z,7.50
2019-03-25T08:38:03.512Z,6.23
2019-03-25T08:40:33.010Z,7.97
2019-03-25T08:43:02.632Z,6.03
2019-03-25T08:45:32.745Z,9.03
2019-03-25T08:48:02.338Z,6.87
2019-03-25T08:50:34.877Z,4.60
2019-03-25T08:53:03.926Z,4.97
2019-03-25T08:55:33.420Z,4.30
2019-03-25T08:58:11.939Z,4.43
2019-03-25T09:00:37.786Z,5.10
2019-03-25T09:03:07.175Z,6.03
2019-03-25T09:05:36.788Z,6.97
2019-03-25T09:08:07.116Z,2.77
2019-03-25T09:10:37.765Z,4.50
2019-03-25T09:13:07.342Z,3.80
2019-03-25T09:15:36.549Z,3.27
2019-03-25T09:18:11.391Z,3.97
2019-03-25T09:20:41.292Z,3.93
2019-03-25T09:23:10.538Z,4.27
2019-03-25T09:25:40.398Z,3.63
2019-03-25T09:28:09.800Z,4.60
2019-03-25T09:30:56.211Z,3.77
2019-03-25T09:33:25.724Z,3.07
2019-03-25T09:35:56.563Z,5.83
2019-03-25T09:38:25.950Z,5.37
2019-03-25T09:40:55.364Z,4.90
2019-03-25T09:43:24.978Z,3.47
2019-03-25T09:45:54.368Z,4.27
2019-03-25T09:48:23.715Z,6.37
2019-03-25T09:50:53.507Z,6.03
2019-03-25T09:53:22.838Z,7.60
2019-03-25T09:55:52.441Z,5.93
2019-03-25T09:58:21.823Z,7.83
2019-03-25T10:00:52.114Z,6.13
2019-03-25T10:03:21.833Z,7.53
2019-03-25T10:05:51.239Z,6.10
2019-03-25T10:08:24.259Z,7.43
2019-03-25T10:10:53.647Z,3.40
2019-03-25T10:13:23.136Z,3.80
2019-03-25T10:15:53.570Z,3.60
2019-03-25T10:18:25.225Z,6.07
2019-03-25T10:20:54.944Z,3.90
2019-03-25T10:23:27.574Z,28.23
2019-03-25T10:25:59.385Z,5.33
2019-03-25T10:28:29.561Z,4.30
2019-03-25T10:30:59.101Z,6.50
2019-03-25T10:33:29.749Z,2.73
2019-03-25T10:35:59.141Z,4.60
2019-03-25T10:38:31.108Z,1.87
2019-03-25T10:41:00.321Z,3.00
2019-03-25T10:43:29.620Z,2.47
2019-03-25T10:45:59.114Z,1.77
2019-03-25T10:48:49.310Z,2.83
2019-03-25T10:51:21.003Z,3.47
2019-03-25T10:53:50.375Z,2.40
2019-03-25T10:56:19.806Z,1.40
2019-03-25T10:58:57.801Z,3.97
2019-03-25T11:01:21.439Z,2.33
2019-03-25T11:03:50.654Z,2.93
2019-03-25T11:06:20.144Z,3.83
2019-03-25T11:08:49.656Z,3.30
2019-03-25T11:11:19.181Z,2.47
2019-03-25T11:13:48.667Z,3.13
2019-03-25T11:16:18.291Z,4.97
2019-03-25T11:18:51.950Z,1.87
2019-03-25T11:21:25.271Z,2.30
2019-03-25T11:23:54.588Z,1.73
2019-03-25T11:26:27.602Z,2.63
2019-03-25T11:28:56.879Z,1.57
2019-03-25T11:31:26.374Z,4.07
2019-03-25T11:33:55.698Z,3.00
2019-03-25T11:36:25.152Z,2.57
2019-03-25T11:38:55.004Z,2.97
2019-03-25T11:41:24.810Z,2.77
2019-03-25T11:43:56.761Z,3.27
2019-03-25T11:46:26.095Z,2.10
2019-03-25T11:48:58.085Z,3.00
2019-03-25T11:51:27.542Z,3.27
2019-03-25T11:53:58.692Z,4.47
2019-03-25T11:56:28.208Z,2.07
2019-03-25T11:58:59.253Z,3.57
2019-03-25T12:01:28.655Z,4.23
2019-03-25T12:03:57.851Z,3.10
2019-03-25T12:06:27.267Z,4.57
2019-03-25T12:08:56.757Z,5.33
2019-03-25T12:11:25.962Z,4.03
2019-03-25T12:13:55.160Z,5.43
2019-03-25T12:16:24.362Z,2.30
2019-03-25T12:18:55.839Z,4.57
2019-03-25T12:21:25.625Z,4.33
2019-03-25T12:23:54.829Z,5.37
2019-03-25T12:26:24.657Z,6.13
2019-03-25T12:28:53.837Z,4.77
2019-03-25T12:31:23.229Z,4.53
2019-03-25T12:33:52.544Z,3.27
2019-03-25T12:36:22.032Z,3.43
2019-03-25T12:38:51.775Z,3.23
2019-03-25T12:41:21.252Z,2.50
2019-03-25T12:43:50.657Z,2.43
2019-03-25T12:46:19.851Z,4.33
2019-03-25T12:48:49.487Z,5.00
2019-03-25T12:51:18.814Z,4.67
2019-03-25T12:53:47.979Z,4.23
2019-03-25T12:56:17.282Z,3.87
2019-03-25T12:58:46.780Z,3.37
2019-03-25T13:01:20.155Z,1.50
2019-03-25T13:03:49.490Z,1.80
2019-03-25T13:06:18.977Z,1.87
2019-03-25T13:08:48.486Z,2.37
2019-03-25T13:11:24.029Z,3.37
2019-03-25T13:13:53.328Z,2.00
2019-03-25T13:16:24.189Z,2.27
2019-03-25T13:18:54.388Z,2.00
2019-03-25T13:21:25.716Z,2.53
2019-03-25T13:23:56.087Z,2.60
2019-03-25T13:26:25.385Z,2.50
2019-03-25T13:29:01.855Z,1.43
2019-03-25T13:31:25.934Z,1.63
2019-03-25T13:33:55.429Z,2.50
2019-03-25T13:36:24.744Z,2.20
2019-03-25T13:38:54.043Z,3.47
2019-03-25T13:41:23.346Z,3.50
2019-03-25T13:43:52.853Z,2.43
2019-03-25T13:46:22.055Z,2.83
2019-03-25T13:48:51.445Z,3.53
2019-03-25T13:51:25.042Z,2.43
2019-03-25T13:53:52.725Z,2.63
2019-03-25T13:56:22.625Z,2.33
2019-03-25T13:58:52.027Z,1.50
2019-03-25T14:01:21.539Z,1.47
2019-03-25T14:03:50.746Z,1.43
2019-03-25T14:06:20.254Z,1.83
2019-03-25T14:08:49.742Z,2.40
2019-03-25T14:11:20.820Z,2.13
2019-03-25T14:13:50.430Z,3.00
2019-03-25T14:16:19.903Z,1.73
2019-03-25T14:18:49.114Z,2.77
2019-03-25T14:21:18.614Z,2.20
2019-03-25T14:23:48.228Z,3.63
2019-03-25T14:26:17.444Z,1.93
2019-03-25T14:28:46.817Z,3.50
2019-03-25T14:31:16.416Z,3.97
2019-03-25T14:33:46.040Z,1.70
2019-03-25T14:36:15.356Z,1.73
2019-03-25T14:38:44.845Z,1.87
2019-03-25T14:41:14.160Z,1.87
2019-03-25T14:43:43.476Z,1.50
2019-03-25T14:46:12.943Z,1.60
2019-03-25T14:48:42.168Z,1.97
2019-03-25T14:51:11.369Z,2.27
2019-03-25T14:53:45.150Z,2.60
2019-03-25T14:56:31.067Z,1.77
2019-03-25T14:59:00.451Z,1.87
2019-03-25T15:01:29.769Z,3.43
2019-03-25T15:03:59.162Z,2.33
2019-03-25T15:06:28.672Z,4.17
2019-03-25T15:08:58.413Z,2.27
2019-03-25T15:11:27.885Z,2.07
2019-03-25T15:13:57.506Z,3.03
2019-03-25T15:16:27.310Z,2.57
2019-03-25T15:19:03.365Z,2.50
2019-03-25T15:21:32.690Z,2.40
2019-03-25T15:24:01.873Z,1.80
2019-03-25T15:26:31.181Z,2.93
2019-03-25T15:29:00.687Z,2.57
2019-03-25T15:31:30.186Z,4.03
2019-03-25T15:33:59.689Z,3.30
2019-03-25T15:36:29.200Z,2.83
2019-03-25T15:38:58.509Z,3.23
2019-03-25T15:41:27.998Z,4.40
2019-03-25T15:43:57.215Z,1.97
2019-03-25T15:46:26.603Z,1.30
2019-03-25T15:48:56.112Z,1.83
2019-03-25T15:51:25.279Z,1.30
2019-03-25T15:53:54.641Z,1.40
2019-03-25T15:56:23.791Z,1.27
2019-03-25T15:58:53.009Z,1.17
2019-03-25T16:01:22.409Z,1.53
2019-03-25T16:03:51.809Z,2.13
2019-03-25T16:06:22.424Z,1.73
2019-03-25T16:08:51.997Z,2.00
2019-03-25T16:11:21.155Z,1.63
2019-03-25T16:13:50.355Z,1.50
2019-03-25T16:16:19.859Z,1.60
2019-03-25T16:18:49.326Z,1.50
2019-03-25T16:21:18.770Z,1.53
2019-03-25T16:23:47.937Z,2.17
2019-03-25T16:26:17.614Z,1.50
2019-03-25T16:28:46.800Z,3.93
2019-03-25T16:31:17.227Z,1.43
2019-03-25T16:33:49.471Z,1.40
2019-03-25T16:36:18.966Z,1.83
2019-03-25T16:38:48.552Z,3.90
2019-03-25T16:41:17.738Z,2.20
2019-03-25T16:43:47.218Z,1.50
2019-03-25T16:46:17.569Z,2.17
2019-03-25T16:48:46.721Z,1.40
2019-03-25T16:51:16.146Z,3.50
2019-03-25T16:53:45.565Z,3.17
2019-03-25T16:56:15.004Z,2.73
2019-03-25T16:58:44.185Z,3.10
2019-03-25T17:01:13.365Z,1.83
2019-03-25T17:03:42.534Z,2.40
2019-03-25T17:06:11.954Z,1.57
2019-03-25T17:08:41.329Z,3.30
2019-03-25T17:11:10.587Z,2.50
2019-03-25T17:13:39.806Z,2.10
2019-03-25T17:16:09.154Z,1.87
2019-03-25T17:18:38.352Z,1.50
2019-03-25T17:21:07.559Z,2.27
2019-03-25T17:23:36.754Z,2.97
2019-03-25T17:26:06.164Z,2.33
2019-03-25T17:28:35.762Z,1.60
2019-03-25T17:31:04.964Z,1.67
2019-03-25T17:33:34.177Z,1.70
2019-03-25T17:36:03.360Z,1.73
2019-03-25T17:38:32.753Z,2.00
2019-03-25T17:41:02.154Z,1.60
2019-03-25T17:43:31.368Z,1.73
2019-03-25T17:46:00.875Z,2.37
2019-03-25T17:48:30.277Z,1.60
2019-03-25T17:50:59.994Z,1.73
2019-03-25T17:53:29.479Z,3.07
2019-03-25T17:55:58.799Z,3.43
2019-03-25T17:58:28.109Z,2.07
2019-03-25T18:01:04.893Z,2.23
2019-03-25T18:03:34.370Z,2.37
2019-03-25T18:06:03.591Z,2.63
2019-03-25T18:08:32.882Z,3.20
2019-03-25T18:11:02.085Z,3.07
2019-03-25T18:13:31.570Z,3.83
2019-03-25T18:16:01.108Z,2.80
2019-03-25T18:18:30.704Z,3.17
2019-03-25T18:20:59.901Z,2.53
2019-03-25T18:23:29.612Z,2.70
2019-03-25T18:25:58.814Z,2.17
2019-03-25T18:28:28.121Z,2.83
2019-03-25T18:30:57.414Z,3.90
2019-03-25T18:33:30.239Z,3.37
2019-03-25T18:35:59.812Z,4.70
2019-03-25T18:38:29.419Z,4.33
2019-03-25T18:40:58.821Z,3.23
2019-03-25T18:43:28.667Z,4.70
2019-03-25T18:45:57.946Z,3.50
2019-03-25T18:48:27.348Z,4.23
2019-03-25T18:51:01.490Z,5.07
2019-03-25T18:53:30.838Z,4.67
2019-03-25T18:56:00.472Z,6.10
2019-03-25T18:58:29.866Z,4.83
2019-03-25T19:00:59.773Z,4.33
2019-03-25T19:03:28.991Z,4.93
2019-03-25T19:05:59.034Z,4.20
2019-03-25T19:08:29.774Z,4.63
2019-03-25T19:10:59.419Z,4.57
2019-03-25T19:13:29.158Z,5.60
2019-03-25T19:15:58.857Z,5.27
2019-03-25T19:18:28.487Z,5.37
2019-03-25T19:20:58.000Z,5.60
2019-03-25T19:23:27.599Z,4.53
2019-03-25T19:25:58.913Z,4.53
2019-03-25T19:28:28.475Z,5.33
2019-03-25T19:31:00.185Z,4.60
2019-03-25T19:33:29.516Z,5.50
2019-03-25T19:35:58.912Z,6.10
2019-03-25T19:38:28.131Z,5.93
2019-03-25T19:40:57.771Z,5.73
2019-03-25T19:43:27.258Z,5.53
2019-03-25T19:45:57.039Z,5.27
2019-03-25T19:48:26.348Z,6.30
2019-03-25T19:50:56.877Z,6.10
2019-03-25T19:53:33.413Z,5.43
2019-03-25T19:56:05.313Z,3.77
2019-03-25T19:58:36.197Z,5.40
2019-03-25T20:01:05.960Z,5.40
2019-03-25T20:03:35.558Z,5.40
2019-03-25T20:06:04.788Z,4.57
2019-03-25T20:08:34.596Z,4.40
2019-03-25T20:11:04.661Z,5.40
2019-03-25T20:13:34.107Z,4.87
2019-03-25T20:16:06.489Z,6.73
2019-03-25T20:18:37.208Z,4.50
2019-03-25T20:21:07.575Z,5.13
2019-03-25T20:23:37.045Z,6.70
2019-03-25T20:26:09.558Z,4.43
2019-03-25T20:28:40.951Z,4.00
2019-03-25T20:31:10.365Z,10.33
2019-03-25T20:33:41.838Z,7.43
2019-03-25T20:36:15.945Z,5.60
2019-03-25T20:38:49.339Z,5.00
2019-03-25T20:41:18.013Z,4.77
2019-03-25T20:43:47.571Z,6.37
2019-03-25T20:46:18.419Z,4.63
2019-03-25T20:48:51.527Z,5.90
2019-03-25T20:51:21.176Z,6.70
2019-03-25T20:53:50.542Z,6.53
2019-03-25T20:56:21.118Z,5.00
2019-03-25T20:58:51.028Z,4.90
2019-03-25T21:01:23.622Z,3.93
2019-03-25T21:03:54.215Z,4.57
2019-03-25T21:06:23.789Z,4.80
2019-03-25T21:08:54.809Z,3.93
2019-03-25T21:11:25.684Z,4.50
2019-03-25T21:13:55.769Z,4.13
2019-03-25T21:16:26.892Z,3.53
2019-03-25T21:18:56.457Z,4.63
2019-03-25T21:21:25.910Z,6.93
2019-03-25T21:23:57.571Z,4.83
2019-03-25T21:26:28.603Z,4.27
2019-03-25T21:29:00.409Z,5.20
2019-03-25T21:31:30.061Z,3.90
2019-03-25T21:33:59.703Z,3.53
2019-03-25T21:36:29.094Z,7.17
2019-03-25T21:38:58.385Z,5.60
2019-03-25T21:41:27.838Z,4.03
2019-03-25T21:43:57.159Z,3.80
2019-03-25T21:46:26.646Z,6.20
2019-03-25T21:48:55.969Z,5.03
2019-03-25T21:51:25.308Z,4.50
2019-03-25T21:53:55.007Z,3.30
2019-03-25T21:56:26.662Z,7.00
2019-03-25T21:58:56.265Z,4.90
2019-03-25T22:01:25.812Z,6.63
2019-03-25T22:03:57.032Z,5.43
2019-03-25T22:06:26.522Z,6.37
2019-03-25T22:08:56.037Z,7.23
2019-03-25T22:11:25.244Z,4.83
2019-03-25T22:13:54.837Z,5.40
2019-03-25T22:16:24.053Z,4.53
2019-03-25T22:18:53.353Z,5.23
2019-03-25T22:21:22.741Z,3.40
2019-03-25T22:23:53.801Z,3.57
2019-03-25T22:26:22.998Z,5.17
2019-03-25T22:28:52.406Z,5.03
2019-03-25T22:31:21.602Z,3.77
2019-03-25T22:33:51.398Z,4.73
2019-03-25T22:36:20.614Z,4.47
2019-03-25T22:38:49.916Z,4.17
2019-03-25T22:41:19.319Z,5.00
2019-03-25T22:43:48.518Z,5.27
2019-03-25T22:46:17.912Z,5.90
2019-03-25T22:48:47.121Z,6.53
2019-03-25T22:51:16.322Z,4.63
2019-03-25T22:53:45.678Z,9.73
2019-03-25T22:56:14.840Z,4.40
2019-03-25T22:58:44.317Z,5.87
2019-03-25T23:01:13.921Z,8.30
2019-03-25T23:03:43.434Z,6.63
2019-03-25T23:06:12.643Z,5.87
2019-03-25T23:08:42.033Z,5.77
2019-03-25T23:11:11.744Z,5.23
2019-03-25T23:13:41.058Z,6.27
2019-03-25T23:16:10.558Z,5.57
2019-03-25T23:18:39.867Z,5.93
2019-03-25T23:21:09.065Z,7.37
2019-03-25T23:23:38.373Z,5.73
2019-03-25T23:26:07.810Z,7.90
2019-03-25T23:28:37.073Z,6.63
2019-03-25T23:31:06.570Z,6.83
2019-03-25T23:33:36.171Z,6.13
2019-03-25T23:36:05.386Z,8.20
2019-03-25T23:38:34.937Z,7.67
2019-03-25T23:41:04.383Z,6.27
2019-03-25T23:43:33.701Z,11.17
2019-03-25T23:46:03.192Z,6.80
2019-03-25T23:48:32.406Z,8.60
2019-03-25T23:51:01.811Z,7.63
2019-03-25T23:53:31.112Z,6.40
2019-03-25T23:56:00.505Z,8.33
2019-03-25T23:58:29.817Z,10.37
